createdAt,value
2018-11-11T00:02:03.923Z,12.50
2018-11-11T00:04:34.043Z,12.50
2018-11-11T00:07:03.858Z,12.60
2018-11-11T00:09:33.765Z,12.60
2018-11-11T00:12:03.728Z,12.70
2018-11-11T00:14:33.830Z,12.80
2018-11-11T00:17:03.687Z,12.80
2018-11-11T00:19:33.552Z,12.80
2018-11-11T00:22:03.710Z,12.70
2018-11-11T00:24:33.531Z,12.70
2018-11-11T00:27:04.090Z,12.70
2018-11-11T00:29:34.177Z,12.70
2018-11-11T00:32:04.138Z,12.60
2018-11-11T00:34:34.409Z,12.50
2018-11-11T00:37:04.247Z,12.40
2018-11-11T00:39:34.161Z,12.40
2018-11-11T00:42:04.792Z,12.30
2018-11-11T00:44:35.032Z,12.30
2018-11-11T00:47:04.876Z,12.20
2018-11-11T00:49:34.603Z,12.20
2018-11-11T00:52:04.327Z,12.10
2018-11-11T00:54:34.547Z,12.10
2018-11-11T00:57:04.510Z,12.10
2018-11-11T00:59:34.422Z,12.10
2018-11-11T01:02:04.514Z,12.10
2018-11-11T01:04:34.407Z,12.10
2018-11-11T01:07:04.489Z,12.00
2018-11-11T01:09:34.717Z,12.00
2018-11-11T01:12:04.677Z,12.00
2018-11-11T01:14:34.412Z,12.00
2018-11-11T01:17:04.364Z,12.00
2018-11-11T01:19:34.541Z,12.00
2018-11-11T01:22:04.639Z,12.00
2018-11-11T01:24:35.346Z,12.00
2018-11-11T01:27:05.623Z,12.10
2018-11-11T01:29:35.995Z,12.00
2018-11-11T01:32:06.029Z,12.00
2018-11-11T01:34:36.636Z,12.00
2018-11-11T01:37:06.564Z,12.00
2018-11-11T01:39:36.355Z,12.00
2018-11-11T01:42:06.888Z,12.00
2018-11-11T01:44:37.199Z,12.00
2018-11-11T01:47:07.220Z,12.00
2018-11-11T01:49:38.208Z,12.00
2018-11-11T01:52:08.199Z,12.00
2018-11-11T01:54:38.428Z,12.00
2018-11-11T01:57:08.442Z,12.10
2018-11-11T01:59:38.373Z,12.00
2018-11-11T02:02:08.689Z,12.00
2018-11-11T02:04:38.851Z,11.90
2018-11-11T02:07:08.878Z,11.90
2018-11-11T02:09:38.929Z,11.90
2018-11-11T02:12:08.941Z,12.00
2018-11-11T02:14:39.194Z,12.00
2018-11-11T02:17:09.095Z,12.00
2018-11-11T02:19:38.722Z,12.00
2018-11-11T02:22:09.584Z,12.00
2018-11-11T02:24:39.694Z,12.10
2018-11-11T02:27:09.859Z,12.00
2018-11-11T02:29:40.817Z,12.00
2018-11-11T02:32:10.903Z,12.00
2018-11-11T02:34:40.656Z,12.10
2018-11-11T02:37:10.348Z,12.10
2018-11-11T02:39:40.724Z,12.10
2018-11-11T02:42:11.442Z,12.10
2018-11-11T02:44:41.419Z,12.10
2018-11-11T02:47:11.424Z,12.10
2018-11-11T02:49:41.209Z,12.10
2018-11-11T02:52:11.175Z,12.10
2018-11-11T02:54:41.552Z,12.10
2018-11-11T02:57:11.570Z,12.10
2018-11-11T02:59:41.531Z,12.10
2018-11-11T03:02:11.439Z,12.10
2018-11-11T03:04:41.296Z,12.10
2018-11-11T03:07:11.196Z,12.10
2018-11-11T03:09:41.825Z,12.00
2018-11-11T03:12:11.713Z,12.00
2018-11-11T03:14:41.440Z,12.00
2018-11-11T03:17:11.270Z,12.00
2018-11-11T03:19:41.194Z,12.00
2018-11-11T03:22:11.267Z,11.90
2018-11-11T03:24:41.519Z,11.90
2018-11-11T03:27:11.618Z,11.90
2018-11-11T03:29:41.756Z,11.90
2018-11-11T03:32:11.675Z,11.90
2018-11-11T03:34:41.630Z,11.90
2018-11-11T03:37:11.670Z,11.90
2018-11-11T03:39:41.954Z,11.90
2018-11-11T03:42:12.475Z,11.90
2018-11-11T03:44:42.181Z,11.80
2018-11-11T03:47:11.869Z,11.80
2018-11-11T03:49:41.867Z,11.80
2018-11-11T03:52:11.483Z,11.70
2018-11-11T03:54:43.650Z,11.70
2018-11-11T03:57:13.845Z,11.70
2018-11-11T03:59:43.671Z,11.70
2018-11-11T04:02:13.509Z,11.70
2018-11-11T04:04:43.855Z,11.80
2018-11-11T04:07:13.594Z,11.80
2018-11-11T04:09:43.591Z,11.80
2018-11-11T04:12:13.684Z,11.90
2018-11-11T04:14:43.786Z,11.90
2018-11-11T04:17:13.873Z,11.90
2018-11-11T04:19:44.021Z,12.00
2018-11-11T04:22:19.865Z,12.10
2018-11-11T04:24:51.127Z,11.90
2018-11-11T04:27:21.619Z,12.10
2018-11-11T04:29:52.277Z,12.00
2018-11-11T04:32:22.259Z,12.00
2018-11-11T04:34:52.386Z,12.00
2018-11-11T04:37:22.612Z,12.00
2018-11-11T04:39:52.919Z,12.00
2018-11-11T04:42:23.010Z,11.90
2018-11-11T04:44:53.094Z,11.90
2018-11-11T04:47:23.313Z,11.90
2018-11-11T04:49:53.583Z,12.00
2018-11-11T04:52:23.498Z,11.90
2018-11-11T04:54:53.700Z,12.00
2018-11-11T04:57:24.404Z,12.00
2018-11-11T04:59:54.407Z,12.00
2018-11-11T05:02:24.075Z,12.10
2018-11-11T05:04:54.199Z,12.20
2018-11-11T05:07:23.971Z,12.20
2018-11-11T05:09:53.932Z,12.20
2018-11-11T05:12:24.071Z,12.20
2018-11-11T05:14:54.076Z,12.20
2018-11-11T05:17:24.040Z,12.20
2018-11-11T05:19:54.322Z,12.20
2018-11-11T05:22:24.676Z,12.20
2018-11-11T05:24:54.790Z,12.10
2018-11-11T05:27:25.031Z,12.20
2018-11-11T05:29:55.141Z,12.20
2018-11-11T05:32:25.046Z,12.20
2018-11-11T05:34:55.081Z,12.30
2018-11-11T05:37:25.180Z,12.30
2018-11-11T05:39:55.040Z,12.30
2018-11-11T05:42:25.516Z,12.30
2018-11-11T05:44:55.786Z,12.20
2018-11-11T05:47:25.564Z,12.30
2018-11-11T05:49:55.469Z,12.40
2018-11-11T05:52:25.423Z,12.40
2018-11-11T05:54:55.624Z,12.40
2018-11-11T05:57:25.422Z,12.40
2018-11-11T05:59:56.031Z,12.40
2018-11-11T06:02:25.835Z,12.50
2018-11-11T06:04:55.563Z,12.40
2018-11-11T06:07:25.330Z,12.50
2018-11-11T06:09:55.522Z,12.50
2018-11-11T06:12:25.471Z,12.50
2018-11-11T06:14:55.413Z,12.50
2018-11-11T06:17:26.078Z,12.50
2018-11-11T06:19:56.000Z,12.60
2018-11-11T06:22:26.223Z,12.60
2018-11-11T06:24:56.434Z,12.60
2018-11-11T06:27:27.610Z,12.60
2018-11-11T06:29:57.499Z,12.60
2018-11-11T06:32:27.394Z,12.60
2018-11-11T06:34:57.544Z,12.60
2018-11-11T06:37:27.350Z,12.70
2018-11-11T06:39:58.831Z,12.60
2018-11-11T06:42:28.695Z,12.60
2018-11-11T06:44:58.831Z,12.70
2018-11-11T06:47:29.018Z,12.60
2018-11-11T06:49:59.095Z,12.70
2018-11-11T06:52:29.297Z,12.60
2018-11-11T06:54:59.475Z,12.60
2018-11-11T06:57:29.582Z,12.50
2018-11-11T07:00:00.133Z,12.50
2018-11-11T07:02:37.007Z,12.50
2018-11-11T07:05:08.107Z,12.50
2018-11-11T07:07:38.216Z,12.50
2018-11-11T07:10:07.923Z,12.50
2018-11-11T07:12:37.594Z,12.50
2018-11-11T07:15:08.029Z,12.50
2018-11-11T07:17:37.966Z,12.50
2018-11-11T07:20:08.064Z,12.50
2018-11-11T07:22:38.359Z,12.50
2018-11-11T07:25:08.250Z,12.50
2018-11-11T07:27:38.319Z,12.50
2018-11-11T07:30:08.141Z,12.50
2018-11-11T07:32:38.071Z,12.60
2018-11-11T07:35:09.541Z,12.60
2018-11-11T07:37:40.287Z,12.70
2018-11-11T07:40:12.739Z,12.70
2018-11-11T07:42:42.864Z,12.70
2018-11-11T07:45:12.628Z,12.60
2018-11-11T07:47:42.445Z,12.60
2018-11-11T07:50:12.487Z,12.60
2018-11-11T07:52:43.830Z,12.70
2018-11-11T07:55:14.321Z,12.70
2018-11-11T07:57:44.176Z,12.70
2018-11-11T08:00:14.757Z,12.80
2018-11-11T08:02:44.695Z,12.80
2018-11-11T08:05:14.836Z,12.80
2018-11-11T08:07:44.905Z,12.80
2018-11-11T08:10:25.836Z,12.80
2018-11-11T08:12:55.650Z,12.80
2018-11-11T08:15:25.275Z,12.80
2018-11-11T08:17:55.133Z,12.80
2018-11-11T08:20:27.573Z,12.90
2018-11-11T08:22:57.272Z,12.90
2018-11-11T08:25:27.075Z,12.90
2018-11-11T08:27:58.866Z,13.10
2018-11-11T08:30:28.495Z,13.10
2018-11-11T08:32:58.880Z,13.30
2018-11-11T08:35:30.579Z,13.30
2018-11-11T08:38:00.207Z,13.40
2018-11-11T08:40:29.909Z,13.40
2018-11-11T08:42:59.862Z,13.30
2018-11-11T08:45:29.915Z,13.30
2018-11-11T08:48:00.096Z,13.30
2018-11-11T08:50:30.103Z,13.30
2018-11-11T08:53:00.284Z,13.40
2018-11-11T08:55:30.248Z,13.40
2018-11-11T08:57:59.972Z,13.40
2018-11-11T09:00:30.023Z,13.40
2018-11-11T09:02:59.995Z,13.40
2018-11-11T09:05:29.931Z,13.40
2018-11-11T09:07:59.724Z,13.50
2018-11-11T09:10:29.622Z,13.60
2018-11-11T09:12:59.464Z,13.70
2018-11-11T09:15:29.199Z,13.80
2018-11-11T09:17:59.152Z,13.90
2018-11-11T09:20:29.441Z,13.90
2018-11-11T09:22:59.292Z,13.90
2018-11-11T09:25:30.246Z,13.80
2018-11-11T09:28:00.580Z,13.90
2018-11-11T09:30:30.664Z,13.80
2018-11-11T09:33:00.570Z,13.90
2018-11-11T09:35:30.227Z,13.90
2018-11-11T09:38:00.037Z,13.90
2018-11-11T09:40:30.178Z,13.90
2018-11-11T09:42:59.870Z,13.90
2018-11-11T09:45:29.767Z,14.00
2018-11-11T09:48:00.073Z,14.00
2018-11-11T09:50:30.603Z,14.10
2018-11-11T09:53:00.373Z,14.10
2018-11-11T09:55:30.659Z,14.20
2018-11-11T09:58:01.447Z,14.20
2018-11-11T10:00:31.135Z,14.20
2018-11-11T10:03:24.451Z,14.20
2018-11-11T10:06:01.411Z,14.20
2018-11-11T10:08:38.968Z,14.20
2018-11-11T10:11:15.494Z,14.20
2018-11-11T10:14:21.124Z,14.20
2018-11-11T10:17:01.726Z,14.10
2018-11-11T10:21:39.335Z,14.20
2018-11-11T10:24:21.828Z,14.00
2018-11-11T10:26:56.916Z,14.10
2018-11-11T10:31:34.718Z,13.90
2018-11-11T10:34:10.808Z,13.80
2018-11-11T10:36:50.506Z,13.80
2018-11-11T10:40:22.883Z,13.80
2018-11-11T10:43:01.684Z,13.80
2018-11-11T10:45:38.680Z,13.70
2018-11-11T10:48:09.953Z,13.70
2018-11-11T10:50:42.381Z,13.80
2018-11-11T10:53:12.048Z,13.80
2018-11-11T10:55:42.022Z,13.80
2018-11-11T10:58:11.940Z,13.70
2018-11-11T11:00:46.683Z,13.70
2018-11-11T11:03:21.539Z,13.90
2018-11-11T11:05:51.293Z,13.90
2018-11-11T11:08:21.009Z,13.80
2018-11-11T11:10:51.219Z,13.80
2018-11-11T11:13:20.915Z,13.70
2018-11-11T11:15:50.827Z,13.80
2018-11-11T11:18:20.923Z,13.90
2018-11-11T11:20:50.788Z,14.00
2018-11-11T11:23:20.453Z,14.20
2018-11-11T11:25:50.597Z,14.30
2018-11-11T11:28:20.323Z,14.30
2018-11-11T11:30:50.081Z,14.40
2018-11-11T11:33:20.389Z,14.40
2018-11-11T11:35:50.880Z,14.30
2018-11-11T11:38:20.665Z,14.40
2018-11-11T11:40:50.782Z,14.50
2018-11-11T11:43:20.480Z,14.80
2018-11-11T11:45:50.167Z,14.80
2018-11-11T11:48:22.248Z,15.00
2018-11-11T11:50:52.176Z,15.30
2018-11-11T11:53:22.765Z,15.60
2018-11-11T11:55:52.751Z,15.60
2018-11-11T11:58:27.533Z,15.40
2018-11-11T12:00:57.701Z,15.20
2018-11-11T12:03:28.723Z,15.20
2018-11-11T12:05:58.519Z,15.10
2018-11-11T12:08:28.450Z,15.10
2018-11-11T12:10:58.238Z,15.30
2018-11-11T12:13:28.528Z,15.30
2018-11-11T12:15:58.533Z,15.40
2018-11-11T12:18:29.995Z,15.40
2018-11-11T12:20:59.722Z,15.20
2018-11-11T12:23:29.455Z,15.10
2018-11-11T12:25:59.690Z,15.10
2018-11-11T12:28:30.347Z,14.90
2018-11-11T12:31:00.127Z,14.90
2018-11-11T12:33:30.115Z,14.90
2018-11-11T12:35:59.896Z,14.80
2018-11-11T12:38:29.538Z,14.90
2018-11-11T12:40:59.652Z,14.90
2018-11-11T12:43:29.319Z,15.00
2018-11-11T12:45:59.084Z,15.10
2018-11-11T12:48:29.221Z,15.20
2018-11-11T12:50:59.147Z,15.30
2018-11-11T12:53:28.880Z,15.20
2018-11-11T12:55:59.039Z,15.20
2018-11-11T12:58:29.066Z,15.20
2018-11-11T13:00:58.900Z,15.00
2018-11-11T13:03:28.866Z,15.00
2018-11-11T13:05:58.524Z,15.00
2018-11-11T13:08:28.254Z,14.80
2018-11-11T13:10:58.270Z,14.90
2018-11-11T13:13:27.940Z,14.80
2018-11-11T13:15:57.911Z,14.80
2018-11-11T13:18:27.859Z,14.80
2018-11-11T13:20:58.097Z,14.70
2018-11-11T13:23:27.860Z,14.80
2018-11-11T13:25:58.176Z,14.70
2018-11-11T13:28:27.925Z,14.70
2018-11-11T13:30:57.695Z,14.80
2018-11-11T13:33:27.803Z,14.90
2018-11-11T13:35:57.633Z,14.90
2018-11-11T13:38:27.387Z,15.00
2018-11-11T13:40:58.763Z,15.10
2018-11-11T13:43:28.506Z,15.10
2018-11-11T13:45:58.262Z,15.10
2018-11-11T13:48:28.248Z,14.90
2018-11-11T13:50:57.956Z,14.70
2018-11-11T13:53:27.679Z,14.70
2018-11-11T13:55:57.627Z,14.70
2018-11-11T13:58:27.425Z,14.60
2018-11-11T14:00:57.201Z,14.60
2018-11-11T14:03:27.228Z,14.60
2018-11-11T14:05:56.984Z,14.60
2018-11-11T14:08:26.962Z,14.60
2018-11-11T14:10:59.470Z,14.60
2018-11-11T14:13:29.151Z,14.60
2018-11-11T14:15:58.983Z,14.70
2018-11-11T14:18:29.070Z,14.70
2018-11-11T14:20:58.967Z,14.80
2018-11-11T14:23:28.922Z,14.80
2018-11-11T14:25:58.917Z,14.80
2018-11-11T14:28:28.636Z,14.90
2018-11-11T14:30:58.356Z,14.90
2018-11-11T14:33:29.541Z,14.90
2018-11-11T14:35:59.206Z,14.90
2018-11-11T14:38:28.970Z,14.80
2018-11-11T14:40:59.230Z,14.70
2018-11-11T14:43:28.989Z,14.70
2018-11-11T14:45:58.687Z,14.60
2018-11-11T14:48:28.952Z,14.70
2018-11-11T14:50:58.788Z,14.60
2018-11-11T14:53:29.553Z,14.50
2018-11-11T14:55:59.802Z,14.60
2018-11-11T14:58:29.691Z,14.50
2018-11-11T15:00:59.490Z,14.50
2018-11-11T15:03:30.345Z,14.50
2018-11-11T15:06:00.184Z,14.50
2018-11-11T15:08:30.767Z,14.40
2018-11-11T15:11:01.070Z,14.30
2018-11-11T15:13:31.042Z,14.20
2018-11-11T15:16:01.497Z,14.10
2018-11-11T15:18:31.517Z,14.10
2018-11-11T15:21:02.252Z,14.10
2018-11-11T15:23:32.927Z,14.00
2018-11-11T15:26:03.115Z,13.90
2018-11-11T15:28:32.778Z,13.90
2018-11-11T15:31:02.897Z,13.80
2018-11-11T15:33:32.894Z,13.70
2018-11-11T15:36:02.786Z,13.60
2018-11-11T15:38:33.186Z,13.50
2018-11-11T15:41:03.289Z,13.50
2018-11-11T15:43:33.113Z,13.50
2018-11-11T15:46:03.385Z,13.40
2018-11-11T15:48:33.688Z,13.40
2018-11-11T15:51:03.532Z,13.30
2018-11-11T15:53:33.668Z,13.30
2018-11-11T15:56:04.217Z,13.20
2018-11-11T15:58:34.922Z,13.30
2018-11-11T16:01:05.088Z,13.20
2018-11-11T16:03:35.794Z,13.20
2018-11-11T16:06:06.728Z,13.10
2018-11-11T16:08:36.450Z,13.10
2018-11-11T16:11:06.581Z,13.10
2018-11-11T16:13:36.816Z,13.10
2018-11-11T16:16:07.001Z,13.10
2018-11-11T16:18:36.815Z,13.00
2018-11-11T16:21:07.345Z,13.00
2018-11-11T16:23:37.257Z,13.10
2018-11-11T16:26:07.055Z,13.10
2018-11-11T16:28:36.895Z,13.10
2018-11-11T16:31:07.201Z,13.10
2018-11-11T16:33:37.419Z,13.20
2018-11-11T16:36:07.917Z,13.20
2018-11-11T16:38:38.996Z,13.30
2018-11-11T16:41:10.467Z,13.30
2018-11-11T16:43:40.203Z,13.30
2018-11-11T16:46:10.504Z,13.30
2018-11-11T16:48:40.567Z,13.20
2018-11-11T16:51:10.332Z,13.20
2018-11-11T16:53:40.031Z,13.20
2018-11-11T16:56:09.836Z,13.20
2018-11-11T16:58:39.852Z,13.20
2018-11-11T17:01:09.857Z,13.10
2018-11-11T17:03:39.540Z,13.10
2018-11-11T17:06:09.544Z,13.10
2018-11-11T17:08:39.697Z,13.20
2018-11-11T17:11:10.166Z,13.20
2018-11-11T17:13:40.222Z,13.10
2018-11-11T17:16:10.245Z,13.10
2018-11-11T17:18:40.376Z,13.00
2018-11-11T17:21:10.629Z,12.90
2018-11-11T17:23:40.675Z,12.80
2018-11-11T17:26:10.543Z,12.80
2018-11-11T17:28:40.463Z,12.70
2018-11-11T17:31:10.470Z,12.70
2018-11-11T17:33:40.448Z,12.60
2018-11-11T17:36:10.224Z,12.60
2018-11-11T17:38:40.430Z,12.50
2018-11-11T17:41:10.289Z,12.40
2018-11-11T17:43:40.582Z,12.30
2018-11-11T17:46:10.410Z,12.30
2018-11-11T17:48:40.854Z,12.20
2018-11-11T17:51:10.845Z,12.30
2018-11-11T17:53:40.779Z,12.20
2018-11-11T17:56:10.896Z,12.20
2018-11-11T17:58:40.860Z,12.20
2018-11-11T18:01:10.852Z,12.20
2018-11-11T18:03:41.169Z,12.20
2018-11-11T18:06:12.401Z,12.20
2018-11-11T18:08:42.702Z,12.20
2018-11-11T18:11:12.805Z,12.20
2018-11-11T18:13:43.900Z,12.20
2018-11-11T18:16:14.973Z,12.20
2018-11-11T18:18:45.041Z,12.30
2018-11-11T18:21:15.319Z,12.30
2018-11-11T18:23:45.498Z,12.20
2018-11-11T18:26:15.366Z,12.10
2018-11-11T18:28:45.216Z,12.00
2018-11-11T18:31:15.571Z,11.90
2018-11-11T18:33:46.846Z,11.90
2018-11-11T18:36:16.696Z,11.90
2018-11-11T18:38:46.587Z,11.80
2018-11-11T18:41:17.289Z,11.80
2018-11-11T18:43:47.353Z,11.70
2018-11-11T18:46:17.472Z,11.70
2018-11-11T18:48:47.777Z,11.70
2018-11-11T18:51:17.831Z,11.70
2018-11-11T18:53:47.616Z,11.70
2018-11-11T18:56:17.861Z,11.70
2018-11-11T18:58:48.021Z,11.70
2018-11-11T19:01:20.784Z,11.60
2018-11-11T19:03:50.954Z,11.70
2018-11-11T19:06:22.343Z,11.70
2018-11-11T19:08:52.121Z,11.70
2018-11-11T19:11:22.391Z,11.70
2018-11-11T19:13:56.004Z,11.70
2018-11-11T19:16:26.670Z,11.70
2018-11-11T19:18:57.036Z,11.70
2018-11-11T19:21:28.340Z,11.70
2018-11-11T19:23:58.483Z,11.70
2018-11-11T19:26:29.228Z,11.70
2018-11-11T19:28:58.978Z,11.70
2018-11-11T19:31:29.899Z,11.70
2018-11-11T19:34:01.674Z,11.70
2018-11-11T19:36:32.241Z,11.70
2018-11-11T19:39:02.059Z,11.60
2018-11-11T19:41:33.430Z,11.60
2018-11-11T19:44:03.302Z,11.70
2018-11-11T19:46:33.098Z,11.70
2018-11-11T19:49:03.416Z,11.70
2018-11-11T19:51:33.641Z,11.60
2018-11-11T19:54:04.963Z,11.60
2018-11-11T19:56:35.116Z,11.70
2018-11-11T19:59:06.698Z,11.60
2018-11-11T20:01:37.474Z,11.60
2018-11-11T20:04:08.484Z,11.60
2018-11-11T20:06:39.607Z,11.60
2018-11-11T20:09:12.724Z,11.60
2018-11-11T20:11:42.844Z,11.60
2018-11-11T20:14:13.919Z,11.60
2018-11-11T20:16:44.543Z,11.60
2018-11-11T20:19:15.486Z,11.50
2018-11-11T20:21:46.753Z,11.60
2018-11-11T20:24:16.922Z,11.50
2018-11-11T20:26:47.500Z,11.50
2018-11-11T20:29:17.597Z,11.50
2018-11-11T20:31:47.679Z,11.50
2018-11-11T20:34:18.140Z,11.50
2018-11-11T20:36:48.497Z,11.50
2018-11-11T20:39:18.648Z,11.50
2018-11-11T20:41:48.528Z,11.40
2018-11-11T20:44:18.486Z,11.40
2018-11-11T20:46:49.543Z,11.40
2018-11-11T20:49:21.142Z,11.30
2018-11-11T20:51:50.937Z,11.30
2018-11-11T20:54:21.721Z,11.30
2018-11-11T20:56:51.824Z,11.30
2018-11-11T20:59:23.200Z,11.20
2018-11-11T21:01:53.466Z,11.20
2018-11-11T21:04:23.223Z,11.20
2018-11-11T21:06:53.162Z,11.30
2018-11-11T21:09:23.270Z,11.20
2018-11-11T21:11:53.040Z,11.20
2018-11-11T21:14:24.692Z,11.30
2018-11-11T21:16:54.723Z,11.20
2018-11-11T21:19:24.614Z,11.30
2018-11-11T21:21:54.429Z,11.30
2018-11-11T21:24:24.759Z,11.30
2018-11-11T21:26:54.496Z,11.30
2018-11-11T21:29:24.817Z,11.30
2018-11-11T21:31:55.591Z,11.30
2018-11-11T21:34:25.990Z,11.30
2018-11-11T21:36:56.132Z,11.30
2018-11-11T21:39:26.434Z,11.30
2018-11-11T21:41:57.077Z,11.20
2018-11-11T21:44:26.855Z,11.30
2018-11-11T21:46:56.952Z,11.30
2018-11-11T21:49:27.861Z,11.30
2018-11-11T21:51:58.151Z,11.30
2018-11-11T21:54:28.264Z,11.30
2018-11-11T21:56:58.116Z,11.30
2018-11-11T21:59:28.011Z,11.30
2018-11-11T22:01:58.173Z,11.40
2018-11-11T22:04:28.149Z,11.40
2018-11-11T22:06:58.418Z,11.40
2018-11-11T22:09:28.651Z,11.40
2018-11-11T22:11:58.829Z,11.50
2018-11-11T22:14:29.007Z,11.40
2018-11-11T22:16:59.177Z,11.40
2018-11-11T22:19:29.014Z,11.50
2018-11-11T22:21:58.946Z,11.40
2018-11-11T22:24:29.691Z,11.40
2018-11-11T22:26:59.904Z,11.40
2018-11-11T22:29:29.977Z,11.30
2018-11-11T22:32:00.122Z,11.30
2018-11-11T22:34:30.083Z,11.20
2018-11-11T22:37:00.264Z,11.20
2018-11-11T22:39:30.882Z,11.20
2018-11-11T22:42:01.440Z,11.10
2018-11-11T22:44:31.524Z,11.00
2018-11-11T22:47:01.408Z,11.00
2018-11-11T22:49:31.362Z,10.90
2018-11-11T22:52:02.880Z,10.80
2018-11-11T22:54:33.246Z,10.80
2018-11-11T22:57:04.109Z,10.70
2018-11-11T22:59:34.024Z,10.70
2018-11-11T23:02:05.039Z,10.70
2018-11-11T23:04:34.982Z,10.70
2018-11-11T23:07:04.980Z,10.60
2018-11-11T23:09:34.952Z,10.60
2018-11-11T23:12:05.568Z,10.60
2018-11-11T23:14:35.673Z,10.60
2018-11-11T23:17:05.886Z,10.50
2018-11-11T23:19:36.315Z,10.50
2018-11-11T23:22:06.795Z,10.50
2018-11-11T23:24:36.469Z,10.40
2018-11-11T23:27:06.936Z,10.40
2018-11-11T23:29:37.199Z,10.40
2018-11-11T23:32:07.529Z,10.40
2018-11-11T23:34:37.625Z,10.40
2018-11-11T23:37:07.862Z,10.30
2018-11-11T23:39:38.136Z,10.40
2018-11-11T23:42:09.248Z,10.40
2018-11-11T23:44:39.389Z,10.40
2018-11-11T23:47:09.675Z,10.40
2018-11-11T23:49:41.048Z,10.40
2018-11-11T23:52:11.714Z,10.30
2018-11-11T23:54:42.349Z,10.30
2018-11-11T23:57:12.124Z,10.30
2018-11-11T23:59:42.219Z,10.30
